createdAt,value
2023-03-19T00:00:28.119Z,98155.91
2023-03-19T00:02:54.932Z,98163.97
2023-03-19T00:05:21.669Z,98167.16
2023-03-19T00:07:48.328Z,98168.78
2023-03-19T00:10:15.080Z,98179.66
2023-03-19T00:12:41.971Z,98185.13
2023-03-19T00:15:14.024Z,98176.00
2023-03-19T00:17:42.026Z,98180.03
2023-03-19T00:20:11.021Z,98180.72
2023-03-19T00:22:37.682Z,98180.19
2023-03-19T00:25:04.644Z,98182.16
2023-03-19T00:27:31.467Z,98180.13
2023-03-19T00:29:58.228Z,98181.31
2023-03-19T00:32:25.505Z,98176.03
2023-03-19T00:34:52.179Z,98169.28
2023-03-19T00:37:18.938Z,98170.03
2023-03-19T00:39:45.559Z,98174.22
2023-03-19T00:42:12.404Z,98172.25
2023-03-19T00:44:39.036Z,98178.72
2023-03-19T00:47:07.333Z,98172.66
2023-03-19T00:49:33.974Z,98177.28
2023-03-19T00:52:01.204Z,98176.72
2023-03-19T00:54:32.452Z,98176.28
2023-03-19T00:56:59.165Z,98173.00
2023-03-19T00:59:26.368Z,98168.78
2023-03-19T01:01:53.022Z,98171.41
2023-03-19T01:04:19.725Z,98172.16
2023-03-19T01:06:46.366Z,98170.19
2023-03-19T01:09:13.004Z,98172.00
2023-03-19T01:11:39.619Z,98173.59
2023-03-19T01:14:06.401Z,98179.88
2023-03-19T01:16:34.699Z,98175.88
2023-03-19T01:19:02.126Z,98171.41
2023-03-19T01:21:31.050Z,98177.66
2023-03-19T01:23:58.647Z,98167.00
2023-03-19T01:26:25.515Z,98159.88
2023-03-19T01:28:52.537Z,98167.56
2023-03-19T01:31:19.543Z,98166.31
2023-03-19T01:33:46.547Z,98160.44
2023-03-19T01:36:13.764Z,98161.63
2023-03-19T01:38:40.510Z,98170.50
2023-03-19T01:41:07.732Z,98171.50
2023-03-19T01:43:34.387Z,98185.59
2023-03-19T01:46:07.772Z,98183.34
2023-03-19T01:48:51.677Z,98177.53
2023-03-19T01:51:23.444Z,98175.06
2023-03-19T01:53:53.902Z,98177.13
2023-03-19T01:56:24.158Z,98184.34
2023-03-19T01:58:56.640Z,98178.25
2023-03-19T02:01:23.802Z,98183.03
2023-03-19T02:03:53.014Z,98190.44
2023-03-19T02:06:22.013Z,98192.69
2023-03-19T02:08:53.648Z,98189.91
2023-03-19T02:11:20.961Z,98188.72
2023-03-19T02:13:48.256Z,98176.22
2023-03-19T02:16:16.030Z,98167.13
2023-03-19T02:18:43.122Z,98169.09
2023-03-19T02:21:15.010Z,98177.34
2023-03-19T02:24:12.283Z,98180.16
2023-03-19T02:26:41.370Z,98177.16
2023-03-19T02:29:08.012Z,98178.97
2023-03-19T02:31:34.699Z,98176.56
2023-03-19T02:34:07.449Z,98183.72
2023-03-19T02:36:39.130Z,98194.38
2023-03-19T02:39:12.091Z,98209.28
2023-03-19T02:41:41.542Z,98206.22
2023-03-19T02:44:11.792Z,98194.38
2023-03-19T02:46:38.485Z,98206.91
2023-03-19T02:49:05.397Z,98204.22
2023-03-19T02:51:32.081Z,98208.41
2023-03-19T02:54:00.919Z,98203.53
2023-03-19T02:56:27.698Z,98202.69
2023-03-19T02:58:54.397Z,98209.31
2023-03-19T03:01:21.168Z,98210.94
2023-03-19T03:03:47.831Z,98208.97
2023-03-19T03:06:14.492Z,98208.97
2023-03-19T03:08:41.306Z,98213.75
2023-03-19T03:11:07.921Z,98224.41
2023-03-19T03:13:34.912Z,98218.72
2023-03-19T03:16:01.987Z,98212.69
2023-03-19T03:18:28.629Z,98215.22
2023-03-19T03:20:55.377Z,98212.34
2023-03-19T03:23:22.131Z,98210.31
2023-03-19T03:25:51.339Z,98213.31
2023-03-19T03:28:19.143Z,98213.84
2023-03-19T03:30:46.567Z,98225.44
2023-03-19T03:33:13.180Z,98229.56
2023-03-19T03:35:40.001Z,98229.66
2023-03-19T03:38:06.778Z,98229.31
2023-03-19T03:40:34.530Z,98230.28
2023-03-19T03:43:01.417Z,98231.28
2023-03-19T03:45:28.074Z,98232.63
2023-03-19T03:47:54.750Z,98240.50
2023-03-19T03:50:21.727Z,98240.03
2023-03-19T03:52:48.336Z,98240.22
2023-03-19T03:55:15.298Z,98240.03
2023-03-19T03:57:41.940Z,98235.63
2023-03-19T04:00:09.580Z,98236.63
2023-03-19T04:02:36.253Z,98232.38
2023-03-19T04:05:02.988Z,98231.09
2023-03-19T04:07:29.619Z,98232.28
2023-03-19T04:09:58.366Z,98228.22
2023-03-19T04:12:25.432Z,98231.81
2023-03-19T04:14:52.105Z,98223.72
2023-03-19T04:17:18.947Z,98226.16
2023-03-19T04:19:45.782Z,98228.31
2023-03-19T04:22:12.841Z,98223.44
2023-03-19T04:24:39.479Z,98223.09
2023-03-19T04:27:07.327Z,98228.69
2023-03-19T04:29:34.217Z,98229.69
2023-03-19T04:32:00.877Z,98234.91
2023-03-19T04:34:27.534Z,98235.53
2023-03-19T04:36:54.167Z,98238.06
2023-03-19T04:39:20.793Z,98238.59
2023-03-19T04:41:47.596Z,98233.28
2023-03-19T04:44:14.215Z,98222.91
2023-03-19T04:46:40.860Z,98222.97
2023-03-19T04:49:08.111Z,98215.66
2023-03-19T04:51:34.761Z,98224.78
2023-03-19T04:54:01.459Z,98225.56
2023-03-19T04:56:31.378Z,98225.94
2023-03-19T04:58:58.186Z,98228.75
2023-03-19T05:01:25.101Z,98239.09
2023-03-19T05:03:52.154Z,98247.81
2023-03-19T05:06:20.016Z,98246.19
2023-03-19T05:08:47.157Z,98243.06
2023-03-19T05:11:13.810Z,98255.59
2023-03-19T05:13:40.454Z,98257.34
2023-03-19T05:16:07.356Z,98258.84
2023-03-19T05:18:34.471Z,98272.91
2023-03-19T05:21:01.124Z,98285.72
2023-03-19T05:23:27.739Z,98297.63
2023-03-19T05:25:54.711Z,98293.84
2023-03-19T05:28:21.451Z,98293.34
2023-03-19T05:30:48.150Z,98286.91
2023-03-19T05:33:14.878Z,98288.91
2023-03-19T05:35:41.637Z,98284.19
2023-03-19T05:38:08.277Z,98290.56
2023-03-19T05:40:36.104Z,98295.19
2023-03-19T05:43:03.329Z,98286.19
2023-03-19T05:45:30.816Z,98287.91
2023-03-19T05:47:57.451Z,98295.94
2023-03-19T05:50:24.098Z,98292.13
2023-03-19T05:52:50.773Z,98290.16
2023-03-19T05:55:17.621Z,98290.75
2023-03-19T05:57:44.380Z,98284.53
2023-03-19T06:00:12.214Z,98301.31
2023-03-19T06:02:39.352Z,98307.34
2023-03-19T06:05:06.565Z,98302.22
2023-03-19T06:07:33.215Z,98306.94
2023-03-19T06:10:04.390Z,98309.81
2023-03-19T06:12:31.211Z,98309.75
2023-03-19T06:14:57.791Z,98319.84
2023-03-19T06:17:24.509Z,98338.16
2023-03-19T06:19:51.113Z,98330.97
2023-03-19T06:22:17.733Z,98334.03
2023-03-19T06:24:44.354Z,98342.59
2023-03-19T06:27:11.148Z,98354.34
2023-03-19T06:29:37.853Z,98358.88
2023-03-19T06:32:04.799Z,98360.78
2023-03-19T06:34:31.429Z,98363.66
2023-03-19T06:36:58.083Z,98367.00
2023-03-19T06:39:24.815Z,98357.59
2023-03-19T06:41:51.569Z,98357.06
2023-03-19T06:44:18.373Z,98355.53
2023-03-19T06:46:45.114Z,98361.69
2023-03-19T06:49:11.774Z,98362.19
2023-03-19T06:51:38.435Z,98369.16
2023-03-19T06:54:05.055Z,98375.72
2023-03-19T06:56:31.684Z,98381.94
2023-03-19T06:58:58.277Z,98388.53
2023-03-19T07:01:25.201Z,98393.53
2023-03-19T07:03:51.917Z,98383.94
2023-03-19T07:06:18.559Z,98389.91
2023-03-19T07:08:46.558Z,98390.22
2023-03-19T07:11:14.093Z,98390.19
2023-03-19T07:13:41.111Z,98381.56
2023-03-19T07:16:08.839Z,98384.09
2023-03-19T07:18:35.877Z,98385.72
2023-03-19T07:21:02.564Z,98387.59
2023-03-19T07:23:29.209Z,98382.19
2023-03-19T07:25:55.952Z,98378.25
2023-03-19T07:28:23.129Z,98379.53
2023-03-19T07:30:53.026Z,98393.28
2023-03-19T07:33:20.427Z,98404.69
2023-03-19T07:35:47.112Z,98404.50
2023-03-19T07:38:14.738Z,98397.66
2023-03-19T07:40:45.541Z,98385.78
2023-03-19T07:43:18.063Z,98387.09
2023-03-19T07:45:44.748Z,98390.31
2023-03-19T07:48:12.550Z,98394.38
2023-03-19T07:50:39.298Z,98394.16
2023-03-19T07:53:06.441Z,98396.78
2023-03-19T07:55:33.138Z,98405.72
2023-03-19T07:58:00.012Z,98408.38
2023-03-19T08:00:27.424Z,98403.50
2023-03-19T08:02:54.070Z,98399.47
2023-03-19T08:05:20.717Z,98405.38
2023-03-19T08:07:49.502Z,98401.78
2023-03-19T08:10:16.335Z,98394.91
2023-03-19T08:12:42.987Z,98402.63
2023-03-19T08:15:11.672Z,98400.41
2023-03-19T08:17:38.976Z,98405.25
2023-03-19T08:20:09.561Z,98409.13
2023-03-19T08:22:37.670Z,98405.06
2023-03-19T08:25:06.886Z,98420.69
2023-03-19T08:27:35.752Z,98420.88
2023-03-19T08:30:04.530Z,98420.88
2023-03-19T08:32:31.210Z,98428.16
2023-03-19T08:34:58.100Z,98432.03
2023-03-19T08:37:24.810Z,98425.94
2023-03-19T08:39:52.295Z,98418.84
2023-03-19T08:42:20.141Z,98410.28
2023-03-19T08:44:46.897Z,98416.75
2023-03-19T08:47:13.518Z,98416.34
2023-03-19T08:49:40.844Z,98416.91
2023-03-19T08:52:08.407Z,98416.66
2023-03-19T08:54:36.242Z,98414.75
2023-03-19T08:57:07.329Z,98414.06
2023-03-19T08:59:34.364Z,98411.41
2023-03-19T09:02:01.731Z,98415.19
2023-03-19T09:04:29.124Z,98421.75
2023-03-19T09:06:56.123Z,98429.25
2023-03-19T09:09:24.763Z,98424.63
2023-03-19T09:11:51.495Z,98419.97
2023-03-19T09:14:20.006Z,98428.28
2023-03-19T09:16:46.837Z,98434.34
2023-03-19T09:19:13.604Z,98426.13
2023-03-19T09:21:40.558Z,98426.13
2023-03-19T09:24:07.711Z,98424.66
2023-03-19T09:26:34.505Z,98422.91
2023-03-19T09:29:02.227Z,98421.69
2023-03-19T09:31:29.843Z,98419.78
2023-03-19T09:33:57.130Z,98411.72
2023-03-19T09:36:24.059Z,98412.75
2023-03-19T09:38:50.714Z,98410.09
2023-03-19T09:41:17.410Z,98408.00
2023-03-19T09:43:59.342Z,98411.28
2023-03-19T09:46:35.128Z,98417.19
2023-03-19T09:49:15.598Z,98413.34
2023-03-19T09:51:58.376Z,98411.28
2023-03-19T09:54:33.664Z,98407.91
2023-03-19T09:57:01.255Z,98408.88
2023-03-19T09:59:29.457Z,98406.75
2023-03-19T10:02:24.158Z,98415.78
2023-03-19T10:05:07.821Z,98412.78
2023-03-19T10:07:36.722Z,98418.97
2023-03-19T10:10:38.333Z,98413.25
2023-03-19T10:13:20.342Z,98409.31
2023-03-19T10:15:47.584Z,98407.38
2023-03-19T10:18:21.049Z,98411.09
2023-03-19T10:21:06.319Z,98411.72
2023-03-19T10:23:52.602Z,98404.00
2023-03-19T10:26:21.721Z,98411.88
2023-03-19T10:29:02.591Z,98398.88
2023-03-19T10:31:43.094Z,98401.53
2023-03-19T10:34:29.338Z,98400.84
2023-03-19T10:37:16.560Z,98395.63
2023-03-19T10:39:45.961Z,98396.34
2023-03-19T10:42:39.420Z,98390.75
2023-03-19T10:45:26.686Z,98392.50
2023-03-19T10:47:56.161Z,98384.53
2023-03-19T10:50:30.298Z,98389.00
2023-03-19T10:53:18.036Z,98386.03
2023-03-19T10:55:50.911Z,98384.28
2023-03-19T10:58:19.868Z,98384.00
2023-03-19T11:00:48.742Z,98386.53
2023-03-19T11:03:33.320Z,98381.13
2023-03-19T11:06:31.266Z,98385.59
2023-03-19T11:09:03.450Z,98371.00
2023-03-19T11:11:36.820Z,98367.25
2023-03-19T11:14:09.523Z,98365.38
2023-03-19T11:16:55.020Z,98366.81
2023-03-19T11:19:26.469Z,98358.44
2023-03-19T11:22:01.431Z,98360.63
2023-03-19T11:24:31.322Z,98360.94
2023-03-19T11:26:58.496Z,98358.03
2023-03-19T11:29:28.232Z,98352.38
2023-03-19T11:32:21.313Z,98352.38
2023-03-19T11:35:10.900Z,98345.84
2023-03-19T11:37:49.635Z,98339.97
2023-03-19T11:40:31.926Z,98342.16
2023-03-19T11:43:00.612Z,98333.06
2023-03-19T11:45:47.451Z,98340.78
2023-03-19T11:48:30.378Z,98333.03
2023-03-19T11:51:16.186Z,98324.72
2023-03-19T11:53:58.102Z,98319.59
2023-03-19T11:56:43.124Z,98320.63
2023-03-19T11:59:31.232Z,98312.31
2023-03-19T12:02:28.470Z,98315.06
2023-03-19T12:04:55.022Z,98318.56
2023-03-19T12:07:22.638Z,98309.28
2023-03-19T12:10:10.145Z,98316.84
2023-03-19T12:12:49.877Z,98310.66
2023-03-19T12:15:22.930Z,98317.41
2023-03-19T12:18:07.786Z,98304.63
2023-03-19T12:20:48.767Z,98314.22
2023-03-19T12:23:24.409Z,98299.66
2023-03-19T12:26:00.348Z,98309.16
2023-03-19T12:28:30.741Z,98303.84
2023-03-19T12:31:09.646Z,98298.91
2023-03-19T12:33:56.681Z,98297.03
2023-03-19T12:36:29.455Z,98288.28
2023-03-19T12:39:05.426Z,98293.19
2023-03-19T12:41:35.636Z,98290.63
2023-03-19T12:44:20.134Z,98284.84
2023-03-19T12:47:05.301Z,98286.47
2023-03-19T12:49:52.418Z,98297.44
2023-03-19T12:52:19.037Z,98293.31
2023-03-19T12:54:53.323Z,98287.72
2023-03-19T12:57:35.589Z,98285.34
2023-03-19T13:00:10.116Z,98290.97
2023-03-19T13:02:52.195Z,98283.22
2023-03-19T13:05:39.860Z,98280.03
2023-03-19T13:08:23.602Z,98281.91
2023-03-19T13:10:50.295Z,98275.00
2023-03-19T13:13:27.108Z,98272.63
2023-03-19T13:15:59.258Z,98263.81
2023-03-19T13:18:27.917Z,98257.44
2023-03-19T13:21:29.839Z,98261.75
2023-03-19T13:24:09.064Z,98258.81
2023-03-19T13:26:36.529Z,98258.31
2023-03-19T13:29:17.076Z,98256.69
2023-03-19T13:31:44.141Z,98262.31
2023-03-19T13:34:22.065Z,98254.78
2023-03-19T13:36:55.256Z,98253.19
2023-03-19T13:39:28.143Z,98253.72
2023-03-19T13:42:07.854Z,98256.41
2023-03-19T13:44:41.398Z,98250.00
2023-03-19T13:47:38.381Z,98258.53
2023-03-19T13:50:06.103Z,98255.59
2023-03-19T13:52:32.780Z,98245.69
2023-03-19T13:55:31.200Z,98259.88
2023-03-19T13:58:17.937Z,98251.88
2023-03-19T14:00:45.155Z,98255.34
2023-03-19T14:03:29.980Z,98256.41
2023-03-19T14:05:59.263Z,98254.53
2023-03-19T14:08:29.960Z,98259.03
2023-03-19T14:11:03.210Z,98253.75
2023-03-19T14:13:45.063Z,98259.06
2023-03-19T14:16:27.396Z,98255.88
2023-03-19T14:19:00.457Z,98249.19
2023-03-19T14:21:46.511Z,98251.59
2023-03-19T14:27:32.881Z,98251.03
2023-03-19T14:30:09.411Z,98245.66
2023-03-19T14:32:41.067Z,98255.03
2023-03-19T14:35:14.935Z,98256.34
2023-03-19T14:37:50.912Z,98245.13
2023-03-19T14:40:27.033Z,98240.31
2023-03-19T14:43:02.959Z,98238.41
2023-03-19T14:45:49.677Z,98234.16
2023-03-19T14:48:31.400Z,98235.16
2023-03-19T14:51:14.391Z,98234.34
2023-03-19T14:53:46.404Z,98233.78
2023-03-19T14:56:16.033Z,98236.44
2023-03-19T14:58:52.960Z,98238.03
2023-03-19T15:01:21.561Z,98237.22
2023-03-19T15:03:55.500Z,98243.31
2023-03-19T15:06:22.679Z,98236.88
2023-03-19T15:08:50.182Z,98242.41
2023-03-19T15:11:34.635Z,98246.69
2023-03-19T15:14:23.467Z,98250.06
2023-03-19T15:17:13.694Z,98249.00
2023-03-19T15:19:40.996Z,98253.28
